Time;durP1;ratioP1;P1;durP2;ratioP2;P2;SDS_P1;SDS_P2;PMS_P1;PMS_P2;Temp;Humidity;BMP_temperature;BMP_pressure;BME280_temperature;BME280_humidity;BME280_pressure;Samples;Min_cycle;Max_cycle;Signal;HPM_P1;HPM_P2
2020/12/23 00:01:18;;;;;;;35.55;20.72;;;;;;;2.05;79.43;97543.24;1776714;80;21310;-83
2020/12/23 00:03:45;;;;;;;33.80;19.45;;;;;;;2.10;79.13;97546.53;1777396;79;21177;-83
2020/12/23 00:06:13;;;;;;;29.42;19.20;;;;;;;2.09;78.99;97542.23;1781154;80;21248;-82
2020/12/23 00:08:42;;;;;;;31.82;21.30;;;;;;;2.13;79.30;97543.82;1788018;80;21159;-82
2020/12/23 00:11:09;;;;;;;38.65;23.95;;;;;;;2.16;79.04;97545.84;1787636;80;21294;-83
2020/12/23 00:13:37;;;;;;;35.33;20.85;;;;;;;2.17;79.03;97549.28;1787507;80;21254;-83
2020/12/23 00:16:07;;;;;;;37.05;23.22;;;;;;;2.18;78.93;97554.87;1787533;80;21247;-82
2020/12/23 00:18:35;;;;;;;33.02;19.82;;;;;;;2.13;79.47;97560.73;1780413;80;21231;-84
2020/12/23 00:21:02;;;;;;;34.60;21.10;;;;;;;2.12;78.81;97553.83;1757328;82;21119;-83
2020/12/23 00:23:29;;;;;;;36.38;21.85;;;;;;;2.09;78.96;97553.94;1758894;80;21190;-81
2020/12/23 00:25:57;;;;;;;41.05;23.27;;;;;;;2.02;78.95;97558.52;1758782;80;21258;-83
2020/12/23 00:28:24;;;;;;;31.17;19.07;;;;;;;2.03;79.16;97553.72;1755191;82;21101;-81
2020/12/23 00:30:51;;;;;;;34.92;21.07;;;;;;;2.08;79.12;97553.10;1755212;82;21255;-83
2020/12/23 00:33:20;;;;;;;35.13;19.27;;;;;;;2.08;79.02;97554.84;1777871;79;21152;-82
2020/12/23 00:35:47;;;;;;;34.98;20.88;;;;;;;2.10;79.12;97556.47;1790456;79;21127;-82
2020/12/23 00:38:15;;;;;;;41.68;22.65;;;;;;;2.12;79.17;97557.27;1767997;80;21136;-83
2020/12/23 00:40:47;;;;;;;38.23;22.30;;;;;;;2.08;78.91;97556.14;1754942;82;21271;-82
2020/12/23 00:43:14;;;;;;;35.30;19.17;;;;;;;2.11;79.41;97554.73;1721455;83;21143;-81
2020/12/23 00:45:42;;;;;;;40.60;21.20;;;;;;;2.11;79.72;97556.03;1721967;83;21143;-83
2020/12/23 00:48:10;;;;;;;35.78;21.60;;;;;;;2.06;79.74;97557.51;1721964;83;21143;-82
2020/12/23 00:50:37;;;;;;;32.30;16.87;;;;;;;2.02;79.48;97557.22;1699867;83;21289;-84
2020/12/23 00:53:05;;;;;;;38.50;22.48;;;;;;;1.98;79.58;97558.26;1719789;81;21253;-83
2020/12/23 00:55:34;;;;;;;31.62;19.00;;;;;;;1.92;80.41;97566.27;1765827;81;21102;-85
2020/12/23 00:58:02;;;;;;;37.83;23.35;;;;;;;1.87;80.26;97558.21;1734488;83;21148;-82
2020/12/23 01:00:32;;;;;;;38.85;22.77;;;;;;;1.88;81.01;97553.84;1722630;83;21092;-85
2020/12/23 01:02:59;;;;;;;29.72;16.80;;;;;;;1.93;80.44;97549.77;1694399;85;21283;-85
2020/12/23 01:05:26;;;;;;;37.15;21.73;;;;;;;1.96;80.47;97547.06;1756955;81;21309;-81
2020/12/23 01:07:54;;;;;;;34.95;19.95;;;;;;;1.89;80.86;97545.61;1757888;79;21274;-82
2020/12/23 01:10:25;;;;;;;35.85;22.22;;;;;;;1.93;80.71;97546.73;1757937;82;21274;-81
2020/12/23 01:12:56;;;;;;;28.90;15.63;;;;;;;1.96;81.15;97544.46;1758092;82;21251;-83
2020/12/23 01:15:26;;;;;;;27.73;14.00;;;;;;;1.96;81.30;97541.86;1758163;82;21144;-82
2020/12/23 01:17:56;;;;;;;33.23;20.92;;;;;;;1.87;81.50;97539.15;1764344;80;21115;-81
2020/12/23 01:20:26;;;;;;;41.20;21.27;;;;;;;1.77;81.62;97543.86;1789045;78;21271;-82
2020/12/23 01:22:56;;;;;;;43.10;23.42;;;;;;;1.75;81.38;97537.87;1807751;79;21133;-81
2020/12/23 01:25:24;;;;;;;38.02;21.02;;;;;;;1.73;81.67;97534.47;1807562;79;21588;-83
2020/12/23 01:28:03;;;;;;;40.03;23.65;;;;;;;1.82;81.47;97535.42;1807553;79;21243;-82
2020/12/23 01:30:39;;;;;;;35.80;21.82;;;;;;;1.88;81.54;97533.05;1807605;79;21322;-79
2020/12/23 01:33:06;;;;;;;35.68;19.80;;;;;;;1.95;81.65;97531.06;1764707;79;21149;-80
2020/12/23 01:35:34;;;;;;;38.83;23.38;;;;;;;1.94;81.50;97540.63;1755009;82;21165;-82
2020/12/23 01:38:02;;;;;;;37.85;22.05;;;;;;;1.93;81.15;97532.88;1755081;82;21587;-81
2020/12/23 01:40:33;;;;;;;38.00;23.10;;;;;;;1.97;81.44;97533.16;1757806;81;21626;-81
2020/12/23 01:43:00;;;;;;;33.28;18.67;;;;;;;1.97;81.03;97524.89;1757663;82;21331;-82
2020/12/23 01:45:28;;;;;;;40.58;25.17;;;;;;;1.98;81.09;97536.16;1757688;82;21118;-83
2020/12/23 01:47:57;;;;;;;24.95;13.95;;;;;;;1.86;81.15;97527.05;1757718;81;21254;-82
2020/12/23 01:50:25;;;;;;;38.05;20.62;;;;;;;1.82;81.44;97522.42;1757169;81;21276;-83
2020/12/23 01:52:53;;;;;;;34.78;18.82;;;;;;;1.79;81.43;97523.00;1737267;80;21135;-82
2020/12/23 01:55:21;;;;;;;20.32;11.48;;;;;;;1.81;81.31;97527.23;1721974;83;21242;-83
2020/12/23 01:57:49;;;;;;;34.85;19.70;;;;;;;1.81;81.61;97519.89;1722209;83;21115;-84
2020/12/23 02:00:17;;;;;;;34.13;20.32;;;;;;;1.78;81.60;97524.77;1722340;83;21127;-82
2020/12/23 02:02:47;;;;;;;32.90;21.07;;;;;;;1.82;81.69;97520.30;1722101;83;21321;-83
2020/12/23 02:05:14;;;;;;;25.60;16.42;;;;;;;1.87;81.81;97512.72;1751949;80;21170;-82
2020/12/23 02:07:42;;;;;;;34.23;21.33;;;;;;;1.97;81.66;97511.06;1785899;79;21127;-83
2020/12/23 02:10:09;;;;;;;35.43;20.82;;;;;;;1.95;81.61;97509.80;1805137;79;21738;-84
2020/12/23 02:12:36;;;;;;;30.92;19.70;;;;;;;2.02;81.68;97507.38;1812326;79;21104;-81
2020/12/23 02:15:12;;;;;;;35.55;21.97;;;;;;;2.08;81.25;97509.33;1812362;79;21550;-84
2020/12/23 02:17:42;;;;;;;33.85;20.62;;;;;;;2.10;81.30;97508.35;1812237;78;21097;-82
2020/12/23 02:20:12;;;;;;;31.33;20.60;;;;;;;2.14;81.36;97498.67;1809450;78;21286;-84
2020/12/23 02:22:41;;;;;;;32.48;20.80;;;;;;;2.19;81.30;97495.45;1812389;78;21629;-82
2020/12/23 02:25:09;;;;;;;31.57;20.65;;;;;;;2.19;81.47;97497.58;1812522;78;21106;-83
2020/12/23 02:27:37;;;;;;;31.12;19.12;;;;;;;2.23;81.05;97498.77;1781576;79;21128;-83
2020/12/23 02:30:07;;;;;;;37.95;23.42;;;;;;;2.22;81.41;97501.84;1812681;79;21227;-84
2020/12/23 02:32:35;;;;;;;34.73;19.62;;;;;;;2.21;81.03;97497.55;1809473;79;21116;-83
2020/12/23 02:35:05;;;;;;;34.83;19.90;;;;;;;2.21;81.12;97499.28;1811841;78;21117;-84
2020/12/23 02:37:33;;;;;;;29.20;16.97;;;;;;;2.15;80.70;97506.44;1812607;79;21227;-83
2020/12/23 02:40:01;;;;;;;31.42;19.15;;;;;;;2.10;80.87;97500.55;1811809;79;21117;-82
2020/12/23 02:42:28;;;;;;;33.50;21.35;;;;;;;2.04;80.93;97504.70;1812499;79;21134;-83
2020/12/23 02:44:56;;;;;;;23.27;12.53;;;;;;;2.02;81.27;97514.31;1812242;79;21097;-82
2020/12/23 02:47:24;;;;;;;34.60;22.67;;;;;;;1.99;81.83;97508.78;1812507;79;21231;-83
2020/12/23 02:49:51;;;;;;;29.52;17.23;;;;;;;1.98;81.76;97509.69;1812628;79;21169;-80
2020/12/23 02:52:18;;;;;;;30.77;18.73;;;;;;;1.99;81.44;97510.55;1812524;79;21247;-83
2020/12/23 02:54:45;;;;;;;24.90;13.75;;;;;;;1.98;81.96;97512.76;1812551;78;21108;-83
2020/12/23 02:57:13;;;;;;;31.90;18.40;;;;;;;1.99;81.56;97522.25;1812587;79;21570;-80
2020/12/23 02:59:41;;;;;;;34.48;21.02;;;;;;;1.91;81.68;97524.27;1812470;79;21317;-80
2020/12/23 03:02:08;;;;;;;39.95;24.72;;;;;;;1.87;81.70;97517.91;1812681;79;21137;-83
2020/12/23 03:04:36;;;;;;;39.13;23.73;;;;;;;1.81;82.04;97524.63;1812632;79;21109;-78
2020/12/23 03:07:03;;;;;;;43.63;24.50;;;;;;;1.75;82.42;97522.73;1796740;79;21123;-85
2020/12/23 03:09:32;;;;;;;29.75;16.35;;;;;;;1.76;82.54;97515.34;1793258;80;21120;-83
2020/12/23 03:11:59;;;;;;;39.78;26.10;;;;;;;1.85;82.21;97515.82;1792871;80;21111;-83
2020/12/23 03:14:26;;;;;;;36.17;22.40;;;;;;;1.90;82.56;97518.71;1792140;79;21289;-84
2020/12/23 03:16:53;;;;;;;38.78;24.75;;;;;;;1.89;82.14;97517.84;1791660;80;21112;-82
2020/12/23 03:19:22;;;;;;;39.70;25.92;;;;;;;1.90;82.15;97523.91;1728995;82;21154;-78
2020/12/23 03:21:50;;;;;;;44.65;24.65;;;;;;;1.95;82.51;97528.00;1717828;82;21201;-82
2020/12/23 03:24:17;;;;;;;44.33;24.23;;;;;;;2.00;82.38;97524.78;1715921;82;21170;-83
2020/12/23 03:26:44;;;;;;;36.63;24.30;;;;;;;2.07;82.20;97526.70;1711513;83;21262;-82
2020/12/23 03:29:11;;;;;;;39.13;25.00;;;;;;;2.16;82.31;97530.67;1717145;83;21307;-82
2020/12/23 03:31:40;;;;;;;32.95;19.52;;;;;;;2.13;81.92;97535.55;1733364;82;21153;-84
2020/12/23 03:34:08;;;;;;;39.48;23.98;;;;;;;2.09;82.07;97542.23;1729437;82;21141;-82
2020/12/23 03:36:36;;;;;;;33.45;19.02;;;;;;;2.00;82.17;97537.78;1719934;84;21095;-83
2020/12/23 03:39:04;;;;;;;38.73;24.18;;;;;;;2.02;82.12;97535.12;1752585;82;21273;-82
2020/12/23 03:41:32;;;;;;;36.17;23.25;;;;;;;1.99;82.30;97542.59;1754475;82;21144;-83
2020/12/23 03:44:01;;;;;;;29.77;19.67;;;;;;;2.03;82.46;97540.28;1747748;81;21144;-86
2020/12/23 03:46:28;;;;;;;37.15;22.65;;;;;;;2.06;82.26;97541.91;1747674;82;21117;-82
2020/12/23 03:48:55;;;;;;;27.50;17.20;;;;;;;2.06;82.20;97538.44;1747649;82;21148;-84
2020/12/23 03:51:22;;;;;;;27.40;16.12;;;;;;;2.12;82.44;97546.02;1747439;82;21117;-83
2020/12/23 03:53:51;;;;;;;15.98;9.20;;;;;;;2.09;82.29;97550.87;1747450;81;21183;-82
2020/12/23 03:56:18;;;;;;;32.80;20.65;;;;;;;2.00;82.60;97553.83;1747288;82;21130;-84
2020/12/23 03:58:46;;;;;;;19.23;11.40;;;;;;;1.98;82.32;97550.46;1747587;82;21177;-84
2020/12/23 04:01:13;;;;;;;27.02;18.20;;;;;;;2.02;82.33;97550.72;1734734;80;21111;-82
2020/12/23 04:03:40;;;;;;;29.77;21.20;;;;;;;2.02;82.25;97558.08;1717906;84;21321;-84
2020/12/23 04:06:09;;;;;;;27.05;17.32;;;;;;;2.06;82.26;97560.11;1729803;82;21196;-81
2020/12/23 04:08:37;;;;;;;34.20;21.80;;;;;;;2.13;82.23;97564.63;1723580;83;21172;-81
2020/12/23 04:11:05;;;;;;;26.93;18.40;;;;;;;2.13;82.10;97562.03;1778265;80;21136;-82
2020/12/23 04:13:32;;;;;;;30.77;18.50;;;;;;;2.21;82.21;97565.17;1752649;81;21105;-83
2020/12/23 04:15:59;;;;;;;27.50;17.75;;;;;;;2.22;82.10;97570.77;1753031;80;21199;-83
2020/12/23 04:18:27;;;;;;;28.35;18.85;;;;;;;2.27;82.17;97571.89;1778280;80;21247;-83
2020/12/23 04:20:54;;;;;;;25.70;16.60;;;;;;;2.23;81.86;97573.73;1776762;81;21178;-83
2020/12/23 04:23:21;;;;;;;35.83;21.52;;;;;;;2.28;82.17;97573.12;1776984;81;21243;-81
2020/12/23 04:25:48;;;;;;;34.15;22.10;;;;;;;2.25;81.77;97572.40;1755646;80;21124;-80
2020/12/23 04:28:16;;;;;;;31.20;20.17;;;;;;;2.23;81.95;97571.14;1751847;82;21151;-83
2020/12/23 04:30:47;;;;;;;34.30;20.77;;;;;;;2.22;82.07;97573.38;1753025;82;21245;-83
2020/12/23 04:33:12;;;;;;;36.90;24.55;;;;;;;2.17;81.80;97573.55;1766130;80;21134;-81
2020/12/23 04:35:41;;;;;;;22.87;12.93;;;;;;;2.17;82.00;97579.19;1771384;80;21703;-82
2020/12/23 04:38:09;;;;;;;31.87;21.23;;;;;;;2.18;82.28;97584.79;1783864;80;21301;-83
2020/12/23 04:40:39;;;;;;;31.50;19.67;;;;;;;2.11;82.08;97588.54;1784016;80;21143;-82
2020/12/23 04:43:08;;;;;;;30.27;20.55;;;;;;;2.22;82.34;97588.12;1783990;80;21270;-83
2020/12/23 04:45:36;;;;;;;31.65;20.17;;;;;;;2.21;82.45;97594.22;1783978;80;21123;-82
2020/12/23 04:48:05;;;;;;;39.03;21.42;;;;;;;2.21;82.22;97596.83;1771993;80;21205;-83
2020/12/23 04:50:33;;;;;;;28.62;18.27;;;;;;;2.28;82.14;97598.27;1768349;81;21123;-83
2020/12/23 04:53:01;;;;;;;29.23;17.92;;;;;;;2.25;82.13;97596.65;1768103;81;21103;-83
2020/12/23 04:55:28;;;;;;;24.57;14.33;;;;;;;2.24;82.17;97600.62;1768502;81;21294;-83
2020/12/23 04:57:56;;;;;;;39.58;23.20;;;;;;;2.15;82.48;97603.97;1768734;81;21142;-84
2020/12/23 05:00:26;;;;;;;30.80;16.48;;;;;;;2.06;82.52;97609.52;1768421;81;21273;-82
2020/12/23 05:02:53;;;;;;;36.70;23.90;;;;;;;2.08;82.55;97614.66;1772054;80;21100;-84
2020/12/23 05:05:21;;;;;;;38.02;24.07;;;;;;;2.05;82.57;97626.46;1779546;81;21365;-83
2020/12/23 05:07:48;;;;;;;26.87;16.45;;;;;;;2.11;82.73;97625.78;1776944;81;21109;-83
2020/12/23 05:10:16;;;;;;;38.78;23.30;;;;;;;2.24;82.62;97619.66;1774564;81;21263;-82
2020/12/23 05:12:43;;;;;;;33.10;22.50;;;;;;;2.25;82.18;97616.63;1774332;81;21157;-83
2020/12/23 05:15:11;;;;;;;37.30;24.85;;;;;;;2.30;82.20;97619.88;1760473;81;21136;-82
2020/12/23 05:17:45;;;;;;;35.88;22.62;;;;;;;2.38;82.54;97609.19;1751683;80;21168;-84
2020/12/23 05:20:13;;;;;;;36.03;23.00;;;;;;;2.46;82.24;97605.36;1774089;81;21255;-82
2020/12/23 05:22:46;;;;;;;36.58;24.35;;;;;;;2.55;82.18;97608.53;1774126;81;21159;-80
2020/12/23 05:25:17;;;;;;;33.50;22.22;;;;;;;2.63;82.44;97599.97;1773953;81;21121;-82
2020/12/23 05:27:49;;;;;;;28.77;20.52;;;;;;;2.72;82.31;97603.50;1750839;81;21180;-83
2020/12/23 05:30:19;;;;;;;34.10;21.60;;;;;;;2.78;81.89;97605.01;1773925;81;21262;-81
2020/12/23 05:32:48;;;;;;;40.17;23.87;;;;;;;2.85;81.94;97610.35;1771959;80;21148;-78
2020/12/23 05:35:16;;;;;;;32.30;21.30;;;;;;;2.93;81.91;97606.11;1770946;81;21111;-80
2020/12/23 05:37:43;;;;;;;32.00;22.35;;;;;;;3.04;82.03;97603.08;1778027;80;21577;-83
2020/12/23 05:40:12;;;;;;;28.38;20.10;;;;;;;3.15;81.95;97605.23;1778535;81;21257;-82
2020/12/23 05:42:40;;;;;;;27.85;17.92;;;;;;;3.18;81.30;97603.33;1778307;81;21250;-81
2020/12/23 05:45:09;;;;;;;31.15;20.85;;;;;;;3.21;81.46;97607.13;1748216;81;21298;-82
2020/12/23 05:47:37;;;;;;;41.40;25.97;;;;;;;3.11;81.11;97607.12;1778270;81;21143;-83
2020/12/23 05:50:10;;;;;;;33.38;24.55;;;;;;;3.07;81.44;97604.23;1765181;80;21115;-83
2020/12/23 05:52:38;;;;;;;34.85;24.02;;;;;;;3.09;81.35;97607.63;1768766;81;21107;-83
2020/12/23 05:55:15;;;;;;;27.05;15.95;;;;;;;3.11;81.17;97612.33;1757035;81;21136;-81
2020/12/23 05:57:44;;;;;;;32.80;20.50;;;;;;;3.11;80.88;97605.81;1748127;81;21291;-82
2020/12/23 06:00:12;;;;;;;30.95;17.10;;;;;;;2.99;80.69;97614.99;1721845;83;21123;-83
2020/12/23 06:03:05;;;;;;;33.83;21.15;;;;;;;2.81;80.84;97609.63;1739155;82;21623;-83
2020/12/23 06:05:33;;;;;;;35.48;21.97;;;;;;;2.66;80.86;97598.52;1666430;84;21368;-84
2020/12/23 06:08:03;;;;;;;34.38;20.43;;;;;;;2.63;81.23;97600.80;1698209;84;21124;-82
2020/12/23 06:10:35;;;;;;;34.78;22.05;;;;;;;2.67;81.38;97600.69;1700820;84;21274;-80
2020/12/23 06:13:12;;;;;;;32.50;20.88;;;;;;;2.63;81.72;97602.09;1694350;85;21214;-81
2020/12/23 06:15:42;;;;;;;35.23;22.37;;;;;;;2.61;81.45;97596.09;1672688;85;21185;-79
2020/12/23 06:18:14;;;;;;;33.55;22.13;;;;;;;2.67;81.64;97588.50;1694465;85;21159;-83
2020/12/23 06:20:45;;;;;;;29.65;19.32;;;;;;;2.69;81.52;97591.06;1693144;85;21209;-79
2020/12/23 06:23:17;;;;;;;23.18;15.32;;;;;;;2.65;81.47;97591.17;1694465;85;21190;-83
2020/12/23 06:25:47;;;;;;;26.27;15.58;;;;;;;2.67;81.67;97592.87;1694710;85;21144;-80
2020/12/23 06:28:16;;;;;;;33.05;22.15;;;;;;;2.62;81.64;97587.86;1695030;85;21164;-82
2020/12/23 06:30:43;;;;;;;28.07;15.38;;;;;;;2.65;81.94;97596.82;1695066;85;21287;-82
2020/12/23 06:33:11;;;;;;;34.65;23.27;;;;;;;2.63;81.92;97594.75;1695000;85;21589;-84
2020/12/23 06:35:39;;;;;;;30.08;19.40;;;;;;;2.61;81.66;97603.08;1678855;84;21154;-84
2020/12/23 06:38:21;;;;;;;33.58;18.62;;;;;;;2.68;82.27;97609.72;1664355;86;21135;-80
2020/12/23 06:41:01;;;;;;;27.22;16.57;;;;;;;2.67;82.05;97617.14;1664203;86;21276;-83
2020/12/23 06:43:54;;;;;;;26.95;16.93;;;;;;;2.61;82.04;97605.21;1678619;85;21176;-84
2020/12/23 06:46:22;;;;;;;17.20;9.45;;;;;;;2.63;82.01;97596.89;1695169;84;21177;-84
2020/12/23 06:48:50;;;;;;;24.65;13.43;;;;;;;2.64;82.12;97606.40;1694913;85;21148;-82
2020/12/23 06:51:39;;;;;;;36.53;21.12;;;;;;;2.55;82.26;97613.74;1693318;84;21142;-80
2020/12/23 06:54:06;;;;;;;29.42;19.37;;;;;;;2.48;82.11;97610.06;1690559;85;21194;-81
2020/12/23 06:56:47;;;;;;;33.02;21.10;;;;;;;2.52;82.08;97613.84;1699329;84;21195;-83
2020/12/23 06:59:48;;;;;;;31.15;18.10;;;;;;;2.54;82.10;97617.25;1696126;84;21240;-81
2020/12/23 07:02:17;;;;;;;37.48;22.85;;;;;;;2.56;82.02;97614.11;1702951;84;21326;-83
2020/12/23 07:04:48;;;;;;;33.45;22.52;;;;;;;2.62;82.33;97613.88;1704737;84;21290;-82
2020/12/23 07:07:43;;;;;;;29.63;19.00;;;;;;;2.74;82.47;97613.38;1693377;84;21136;-82
2020/12/23 07:10:15;;;;;;;31.48;21.07;;;;;;;2.79;81.82;97607.98;1693310;85;21168;-81
2020/12/23 07:13:04;;;;;;;33.80;21.62;;;;;;;2.83;82.08;97603.52;1662321;86;21308;-83
2020/12/23 07:15:37;;;;;;;33.65;22.27;;;;;;;2.87;81.72;97608.98;1693552;85;21165;-83
2020/12/23 07:18:12;;;;;;;28.55;19.05;;;;;;;2.87;81.70;97616.79;1693977;84;21291;-83
2020/12/23 07:20:48;;;;;;;22.65;14.38;;;;;;;2.92;81.76;97621.38;1694973;83;21191;-80
2020/12/23 07:23:19;;;;;;;33.90;20.85;;;;;;;2.88;81.63;97628.44;1702351;84;21323;-81
2020/12/23 07:25:53;;;;;;;32.38;21.52;;;;;;;2.75;81.42;97626.78;1688518;85;21710;-84
2020/12/23 07:28:35;;;;;;;32.17;20.17;;;;;;;2.71;82.00;97632.17;1643111;87;21168;-84
2020/12/23 07:31:02;;;;;;;33.33;22.60;;;;;;;2.68;81.72;97628.41;1644238;87;21207;-83
2020/12/23 07:33:32;;;;;;;34.78;23.73;;;;;;;2.68;81.98;97617.53;1670182;86;21601;-79
2020/12/23 07:36:01;;;;;;;32.60;20.60;;;;;;;2.79;82.19;97620.99;1692291;85;21160;-83
2020/12/23 07:38:32;;;;;;;36.38;22.65;;;;;;;2.86;81.89;97623.77;1690959;85;21158;-80
2020/12/23 07:41:00;;;;;;;33.63;20.68;;;;;;;2.93;81.92;97635.63;1692353;85;21274;-82
2020/12/23 07:43:28;;;;;;;33.20;21.97;;;;;;;3.02;81.57;97640.05;1695673;85;21153;-84
2020/12/23 07:45:57;;;;;;;32.90;22.17;;;;;;;3.03;81.56;97638.68;1694183;85;21335;-83
2020/12/23 07:48:28;;;;;;;35.35;22.07;;;;;;;3.07;81.69;97646.78;1693062;85;21156;-83
2020/12/23 07:50:57;;;;;;;34.98;21.17;;;;;;;3.14;81.57;97648.68;1693322;85;21156;-80
2020/12/23 07:53:31;;;;;;;38.67;24.75;;;;;;;3.16;81.43;97648.61;1694446;85;21288;-82
2020/12/23 07:56:06;;;;;;;35.17;24.17;;;;;;;3.16;81.45;97649.91;1695883;85;21161;-84
2020/12/23 07:58:35;;;;;;;37.33;23.25;;;;;;;3.30;81.66;97648.03;1696047;85;21652;-83
2020/12/23 08:01:08;;;;;;;25.48;14.98;;;;;;;3.33;81.24;97641.39;1693555;85;21327;-82
2020/12/23 08:03:36;;;;;;;42.35;27.60;;;;;;;3.31;81.10;97644.05;1692844;85;21180;-83
2020/12/23 08:06:11;;;;;;;45.38;27.37;;;;;;;3.23;81.05;97628.75;1675012;85;21176;-79
2020/12/23 08:08:43;;;;;;;29.30;20.82;;;;;;;3.27;81.45;97625.09;1646658;86;21188;-81
2020/12/23 08:11:13;;;;;;;40.03;22.73;;;;;;;3.32;81.00;97634.02;1639626;86;21675;-81
2020/12/23 08:13:42;;;;;;;36.93;22.42;;;;;;;3.24;81.06;97628.28;1637924;85;21271;-82
2020/12/23 08:16:15;;;;;;;35.88;20.55;;;;;;;3.25;81.25;97633.42;1627932;88;21161;-83
2020/12/23 08:18:44;;;;;;;25.48;14.03;;;;;;;3.31;81.30;97637.53;1638503;88;21296;-83
2020/12/23 08:21:19;;;;;;;30.72;17.77;;;;;;;3.31;81.09;97641.44;1638017;86;21318;-80
2020/12/23 08:23:47;;;;;;;39.85;25.80;;;;;;;3.19;81.20;97636.77;1659591;86;21341;-82
2020/12/23 08:26:15;;;;;;;33.55;19.37;;;;;;;3.17;81.41;97626.38;1650184;87;21159;-79
2020/12/23 08:28:46;;;;;;;36.30;21.85;;;;;;;3.26;81.40;97621.26;1645010;86;21137;-85
2020/12/23 08:31:25;;;;;;;39.05;24.27;;;;;;;3.22;81.46;97623.15;1633846;86;21287;-82
2020/12/23 08:33:58;;;;;;;35.08;23.57;;;;;;;3.26;81.56;97622.09;1633530;88;21328;-81
2020/12/23 08:36:28;;;;;;;23.60;13.43;;;;;;;3.35;81.43;97627.38;1635630;86;21212;-79
2020/12/23 08:38:56;;;;;;;33.88;20.95;;;;;;;3.33;81.30;97621.85;1631277;87;21320;-78
2020/12/23 08:41:26;;;;;;;32.38;18.65;;;;;;;3.31;81.30;97634.92;1635624;88;21324;-79
2020/12/23 08:43:56;;;;;;;30.37;20.10;;;;;;;3.31;81.27;97636.70;1635823;88;21313;-80
2020/12/23 08:46:26;;;;;;;42.03;23.42;;;;;;;3.24;81.45;97637.41;1614382;87;21117;-81
2020/12/23 08:48:56;;;;;;;36.38;20.12;;;;;;;3.30;81.60;97637.61;1664094;86;21134;-80
2020/12/23 08:51:25;;;;;;;25.45;16.17;;;;;;;3.30;81.42;97622.80;1672454;86;21184;-81
2020/12/23 08:53:54;;;;;;;38.73;24.15;;;;;;;3.32;81.44;97625.36;1656678;85;21284;-83
2020/12/23 08:56:31;;;;;;;33.88;23.27;;;;;;;3.27;81.38;97635.98;1647285;87;21284;-84
2020/12/23 08:59:02;;;;;;;38.97;20.37;;;;;;;3.34;81.42;97632.20;1638368;87;21190;-83
2020/12/23 09:01:33;;;;;;;39.38;25.35;;;;;;;3.41;81.43;97620.59;1638433;85;21365;-80
2020/12/23 09:04:04;;;;;;;37.90;25.23;;;;;;;3.51;81.42;97608.03;1639369;84;21654;-79
2020/12/23 09:06:39;;;;;;;35.75;22.07;;;;;;;3.64;81.52;97598.34;1701096;84;21298;-78
2020/12/23 09:09:21;;;;;;;35.90;24.87;;;;;;;3.82;81.18;97583.66;1693684;84;21131;-79
2020/12/23 09:11:54;;;;;;;37.13;25.95;;;;;;;3.93;80.91;97577.94;1693646;84;21156;-80
2020/12/23 09:14:30;;;;;;;36.28;24.37;;;;;;;4.00;80.58;97582.81;1703214;84;21297;-82
2020/12/23 09:17:06;;;;;;;21.00;11.48;;;;;;;3.97;80.00;97584.25;1700136;84;21595;-81
2020/12/23 09:20:03;;;;;;;32.42;21.82;;;;;;;3.94;79.61;97588.32;1692426;83;21245;-80
2020/12/23 09:22:41;;;;;;;14.50;9.33;;;;;;;3.78;80.45;97588.60;1695963;83;21177;-79
2020/12/23 09:25:33;;;;;;;24.27;16.62;;;;;;;3.74;80.54;97589.20;1683238;84;21199;-81
2020/12/23 09:28:13;;;;;;;35.17;23.95;;;;;;;3.62;80.56;97581.95;1734485;81;21283;-82
2020/12/23 09:30:51;;;;;;;28.35;17.40;;;;;;;3.58;80.65;97586.42;1740018;81;21373;-80
2020/12/23 09:33:21;;;;;;;29.12;21.15;;;;;;;3.56;80.36;97576.08;1731687;81;21262;-81
2020/12/23 09:35:54;;;;;;;34.18;22.30;;;;;;;3.50;80.53;97567.67;1764451;80;21282;-80
2020/12/23 09:38:24;;;;;;;31.80;21.17;;;;;;;3.59;80.78;97565.52;1733932;82;22004;-79
2020/12/23 09:40:55;;;;;;;29.50;21.10;;;;;;;3.69;80.50;97570.33;1739546;81;21127;-78
2020/12/23 09:43:26;;;;;;;37.15;23.12;;;;;;;3.74;80.45;97560.08;1739452;82;21142;-79
2020/12/23 09:45:56;;;;;;;31.73;19.42;;;;;;;3.85;80.07;97541.80;1705546;83;21330;-80
2020/12/23 09:48:27;;;;;;;32.23;22.90;;;;;;;3.90;79.72;97538.50;1727903;83;21294;-82
2020/12/23 09:50:55;;;;;;;29.15;20.15;;;;;;;3.98;80.05;97526.42;1733479;82;21163;-80
2020/12/23 09:53:25;;;;;;;37.70;26.97;;;;;;;4.05;79.83;97519.98;1732060;82;21294;-80
2020/12/23 09:55:55;;;;;;;34.58;24.65;;;;;;;4.00;79.44;97511.52;1735275;82;21314;-80
2020/12/23 09:58:22;;;;;;;35.38;21.30;;;;;;;3.97;79.34;97503.38;1738547;82;21140;-87
2020/12/23 10:00:52;;;;;;;26.93;15.13;;;;;;;3.87;79.45;97497.77;1717304;83;21148;-80
2020/12/23 10:03:20;;;;;;;43.50;24.75;;;;;;;3.81;79.40;97497.20;1730709;83;21252;-79
2020/12/23 10:05:47;;;;;;;41.37;27.58;;;;;;;3.68;79.87;97503.44;1759024;82;21320;-84
2020/12/23 10:08:14;;;;;;;37.80;24.30;;;;;;;3.65;79.80;97499.22;1755795;81;21111;-81
2020/12/23 10:10:43;;;;;;;34.80;19.02;;;;;;;3.64;80.13;97502.74;1730202;83;21316;-83
2020/12/23 10:13:10;;;;;;;28.45;16.23;;;;;;;3.69;79.75;97503.84;1730517;83;21286;-83
2020/12/23 10:15:37;;;;;;;26.57;16.45;;;;;;;3.63;80.02;97506.70;1730503;83;21129;-85
2020/12/23 10:18:05;;;;;;;39.35;26.48;;;;;;;3.61;80.07;97502.88;1689876;85;21130;-75
2020/12/23 10:20:33;;;;;;;29.27;16.77;;;;;;;3.58;80.19;97498.66;1724428;79;21295;-81
2020/12/23 10:23:00;;;;;;;28.00;14.58;;;;;;;3.63;80.28;97496.27;1722953;79;21266;-77
2020/12/23 10:25:30;;;;;;;43.28;29.67;;;;;;;3.73;80.15;97492.33;1715009;82;21679;-77
2020/12/23 10:27:57;;;;;;;49.80;29.42;;;;;;;3.77;80.21;97489.12;1683046;84;21163;-83
2020/12/23 10:30:24;;;;;;;38.73;23.05;;;;;;;3.83;80.02;97487.55;1681075;85;21468;-78
2020/12/23 10:32:53;;;;;;;55.30;34.67;;;;;;;3.82;79.50;97481.95;1678118;85;21154;-79
2020/12/23 10:35:20;;;;;;;53.30;35.65;;;;;;;3.76;79.96;97484.38;1681058;84;21528;-78
2020/12/23 10:37:47;;;;;;;55.00;34.50;;;;;;;3.88;80.40;97477.30;1681182;84;21163;-82
2020/12/23 10:40:14;;;;;;;42.85;26.17;;;;;;;4.09;79.76;97468.51;1681375;85;21669;-76
2020/12/23 10:42:42;;;;;;;63.08;34.92;;;;;;;4.21;79.29;97465.31;1705613;84;21909;-78
2020/12/23 10:45:09;;;;;;;51.92;35.65;;;;;;;4.35;80.12;97466.78;1709239;84;21183;-77
2020/12/23 10:47:37;;;;;;;54.73;34.27;;;;;;;4.58;80.00;97461.33;1709200;84;21275;-80
2020/12/23 10:50:04;;;;;;;44.95;30.88;;;;;;;4.77;79.86;97454.73;1709575;82;21250;-82
2020/12/23 10:52:32;;;;;;;43.85;29.55;;;;;;;4.94;79.15;97454.70;1709613;83;21258;-78
2020/12/23 10:54:59;;;;;;;36.05;23.92;;;;;;;4.90;78.22;97447.94;1709558;84;21150;-78
2020/12/23 10:57:26;;;;;;;40.75;28.23;;;;;;;4.81;78.12;97445.36;1709641;83;21269;-78
2020/12/23 10:59:53;;;;;;;40.48;29.23;;;;;;;4.76;78.00;97440.81;1709570;82;21245;-76
2020/12/23 11:02:25;;;;;;;40.20;28.70;;;;;;;4.74;78.87;97422.23;1707906;84;23451;-78
2020/12/23 11:04:52;;;;;;;33.67;22.55;;;;;;;4.74;78.87;97422.23;1705332;84;21880;-76
2020/12/23 11:07:20;;;;;;;42.10;28.10;;;;;;;4.82;78.39;97420.06;1700967;83;21268;-78
2020/12/23 11:09:47;;;;;;;42.35;28.67;;;;;;;4.77;78.21;97412.95;1680754;85;21280;-78
2020/12/23 11:12:14;;;;;;;46.40;29.02;;;;;;;4.83;78.24;97408.22;1680589;85;21190;-76
2020/12/23 11:14:42;;;;;;;42.67;27.30;;;;;;;4.89;78.40;97405.75;1680194;85;21173;-79
2020/12/23 11:17:09;;;;;;;50.25;29.42;;;;;;;4.85;78.19;97406.38;1693372;82;21337;-77
2020/12/23 11:19:37;;;;;;;38.40;23.85;;;;;;;4.85;78.60;97400.33;1698630;84;21314;-76
2020/12/23 11:22:05;;;;;;;36.10;23.30;;;;;;;4.95;78.74;97391.09;1683940;84;21146;-76
2020/12/23 11:24:32;;;;;;;43.13;27.48;;;;;;;5.05;78.67;97390.59;1708268;83;21127;-78
2020/12/23 11:26:59;;;;;;;19.40;11.43;;;;;;;5.02;78.50;97379.82;1714968;82;21333;-78
2020/12/23 11:29:26;;;;;;;40.38;27.37;;;;;;;5.13;78.58;97385.80;1726425;83;21097;-77
2020/12/23 11:31:54;;;;;;;43.90;30.48;;;;;;;5.02;78.12;97378.99;1726240;83;21271;-78
2020/12/23 11:34:21;;;;;;;40.98;25.60;;;;;;;4.97;78.60;97370.92;1726236;83;21333;-79
2020/12/23 11:36:54;;;;;;;46.08;30.62;;;;;;;5.03;78.76;97362.39;1724136;83;21283;-77